Galahad, Canada
Current Conditions -  °F | °C
As of 3:00 AM on Thursday 27 Nov 2014 (Local Time) from CYQF Reporting Station
Light Snow Light Snow  
Wind Chill: 16°   Ceiling: 1800
Heat Index: 25°   Visibility: 2mi
Dew Point: 23°   Wind: 8mph
Humidity: 93%   Direction: 80°E
Pressure: 29.9"   Gusts: NA
Location:  52.52°N, 111.92°W
Report Text: CYQF 271000Z 08007KT 2SM -SN VV018 M04/M05 A2990 RMK SN8 /S06/ SLP172
Loading
Personal Weather Stations






























Interactive Weather Map New forecast layout! Learn more

10-Day Weather Forecast

Advertisements
Track Severe Weather on mobile